Aviation Digital Data Service (ADDS)

Output produced by METARs form (2036 UTC 23 January 2019)
found at http://www.aviationweather.gov/metar/data/
 
Forecast for: NVVV (BAUERFIELD/EFATE, VU)
Text: TAF NVVV 231600Z 2318/2418 10005KT 9999 SCT020
Forecast period: 1800 UTC 23 January 2019 to 1800 UTC 24 January 2019
Forecast type: FROM: standard forecast or significant change
Winds: from the E (100 degrees) at 6 MPH (5 knots; 2.6 m/s)
Visibility: 6 or more miles 10+ km)
Ceiling: at least 12,000 feet AGL
Clouds: scattered clouds at 2000 feet AGL
Weather: no significant weather forecast for this period